Progreso, Mexico

4:16 AM EST on August 30, 2016 (GMT -0500)
INSTITUTO TECNOLOGICO SUPERIOR DE PROGRESO | | Change Station

Elev 7 ft 21.28 °N, 89.65 °W | Updated 1 minute ago

Scattered Clouds
Scattered Clouds
78.6 °F
Feels Like 82 °F
N
4.0
Wind Variable Wind from SW
Gusts 5.0 mph

Today
High -- | Low -- °F
--% Chance of Precip.
Yesterday
High -- | Low -- °F
Precip. -- in
Pressure 29.80 in
Visibility 7.0 miles
Clouds Few 7000 ft
Scattered Clouds 30000 ft
Heat Index 82 °F
Dew Point 76 °F
Humidity 93%
Rainfall 0.00 in
Snow Depth Not available.
6:41 AM 7:15 PM
Waning Crescent, 4% visible
METAR MMMD 300848Z 00000KT 7SM FEW070 SCT300 25/24 A2979 RMK SLP089 57017 977 8/078 SC
Pressure 29.80 in
Visibility 7.0 miles
Clouds Few 7000 ft
Scattered Clouds 30000 ft
Heat Index 82 °F
Dew Point 76 °F
Humidity 93%
Rainfall 0.00 in
Snow Depth Not available.
6:41 AM 7:15 PM
Waning Crescent, 4% visible
METAR MMMD 300848Z 00000KT 7SM FEW070 SCT300 25/24 A2979 RMK SLP089 57017 977 8/078 SC

10-Day Weather Forecast

No radar image for this location.
×

Almanac

Astronomy

Aug. 30, 2016 Rise Set
Actual Time
Civil Twilight
Nautical Twilight
Astronomical Twilight
Moon
Length of Visible Light
Length of Day
Tomorrow will be .
, % of the Moon is Illuminated

Today's Extremes

Country Highs Country Lows

Community

WunderPhotos

Upload Photos

1,935,795 photos uploaded!

WunderBlog® & News

Nearby

Air Quality

  Air Quality AQ Index Pollutant
Not available.

Snow Depth

Station Depth Elevation

Earthquake Activity

City Distance Mag. Time & Date
Minimum magnitude displayed is 2.5.

Coastal Water Temperatures

Place Temperature

Stations

Nearby Weather Stations

Station Location Temp. Windchill Dew Point Humidity Wind Precip. Elev Updated Type